Lone Elm, Missouri
Current Conditions -  °F | °C
As of 1:35 PM on Wednesday 17 Dec 2014 (Local Time) from KVER Reporting Station
Scattered Clouds Scattered Clouds  
Wind Chill: 28°   Ceiling: Unl
Heat Index: 32°   Visibility: 10mi
Dew Point: 22°   Wind: 5mph
Humidity: 66%   Direction: 320°NW
Pressure: 30.29"   Gusts: NA
Location:  38.7427°N, 92.7977°W
Report Text: KVER 171935Z AUTO 32004KT 10SM SCT120 00/M05 A3029 RMK AO2 T00021055
Loading
Personal Weather Stations






























Interactive Weather Map New forecast layout! Learn more

10-Day Weather Forecast

Advertisements
Track Severe Weather on mobile